Time;durP1;ratioP1;P1;durP2;ratioP2;P2;SDS_P1;SDS_P2;PMS_P1;PMS_P2;Temp;Humidity;BMP_temperature;BMP_pressure;BME280_temperature;BME280_humidity;BME280_pressure;Samples;Min_cycle;Max_cycle;Signal;HPM_P1;HPM_P2
2021/12/20 00:00:29;;;;;;;3.33;2.85;;;;;;;8.54;65.51;101028.00;10269755;28;20145;-67
2021/12/20 00:05:31;;;;;;;3.47;2.83;;;;;;;8.59;65.50;101032.09;10271184;28;20150;-67
2021/12/20 00:10:33;;;;;;;3.88;2.15;;;;;;;8.58;65.69;101018.94;10270991;28;20074;-66
2021/12/20 00:15:35;;;;;;;3.30;2.50;;;;;;;8.57;65.56;101012.78;10253882;28;20047;-67
2021/12/20 00:20:36;;;;;;;4.20;2.70;;;;;;;8.64;65.82;101015.91;10270222;28;20046;-66
2021/12/20 00:25:38;;;;;;;2.95;2.30;;;;;;;8.39;66.36;101012.03;10251406;28;20820;-66
2021/12/20 00:30:40;;;;;;;2.67;2.05;;;;;;;8.24;65.92;101010.28;10266637;28;20046;-66
2021/12/20 00:35:41;;;;;;;4.10;1.50;;;;;;;8.25;65.57;101009.34;10269056;28;20049;-67
2021/12/20 00:40:43;;;;;;;3.35;1.98;;;;;;;8.18;66.57;101000.91;10268693;28;20057;-67
2021/12/20 00:45:45;;;;;;;2.80;1.85;;;;;;;8.12;65.77;101003.88;10250821;28;20138;-66
2021/12/20 00:50:46;;;;;;;2.88;1.70;;;;;;;8.00;67.16;100997.53;10311374;23;20130;-62
2021/12/20 00:55:48;;;;;;;1.80;1.35;;;;;;;7.95;67.12;100995.09;10309441;28;20053;-63
2021/12/20 01:00:51;;;;;;;2.38;1.40;;;;;;;8.02;66.29;100987.66;10264920;28;20050;-64
2021/12/20 01:05:53;;;;;;;2.70;1.42;;;;;;;8.11;66.10;100984.47;10236037;28;20068;-63
2021/12/20 01:10:56;;;;;;;1.63;1.27;;;;;;;8.33;66.06;100988.50;10243370;28;20229;-62
2021/12/20 01:16:00;;;;;;;2.30;1.35;;;;;;;8.29;65.97;100990.50;10231985;28;20177;-63
2021/12/20 01:21:02;;;;;;;;;;;;;;;8.37;65.62;100999.81;10234587;28;20122;-64
2021/12/20 01:26:04;;;;;;;2.83;1.85;;;;;;;8.35;65.47;100989.28;10209512;28;20020;-63
2021/12/20 01:31:05;;;;;;;3.42;1.73;;;;;;;8.43;65.75;101000.28;10252142;28;20110;-63
2021/12/20 01:36:06;;;;;;;3.47;1.60;;;;;;;8.32;65.22;100986.81;10227163;28;20051;-63
2021/12/20 01:41:10;;;;;;;2.92;1.65;;;;;;;8.34;65.19;101007.94;10226468;28;20066;-62
2021/12/20 01:46:11;;;;;;;4.15;1.67;;;;;;;8.34;65.34;100995.53;10208752;28;20047;-63
2021/12/20 01:56:46;;;;;;;3.20;1.67;;;;;;;8.37;64.81;100992.69;10214394;28;20149;-63
2021/12/20 02:01:48;;;;;;;1.83;1.33;;;;;;;8.29;65.15;101005.56;10251296;28;20126;-63
2021/12/20 02:06:50;;;;;;;2.35;1.02;;;;;;;7.96;65.08;100990.69;10226134;28;20138;-63
2021/12/20 02:11:52;;;;;;;1.92;0.93;;;;;;;8.14;64.18;100992.25;10229028;28;20226;-63
2021/12/20 02:16:53;;;;;;;3.22;1.42;;;;;;;7.84;63.94;100980.78;10251804;28;20133;-63
2021/12/20 02:21:54;;;;;;;3.17;1.20;;;;;;;7.99;63.84;101001.09;10240722;28;20057;-63
2021/12/20 02:26:56;;;;;;;6.55;1.77;;;;;;;7.79;63.36;100995.16;10226536;28;20077;-63
2021/12/20 02:37:27;;;;;;;4.10;1.40;;;;;;;7.90;63.11;100996.34;10225185;28;20043;-63
2021/12/20 02:42:34;;;;;;;4.22;1.30;;;;;;;8.07;62.71;100998.84;10207792;28;20050;-63
2021/12/20 02:47:38;;;;;;;4.47;1.80;;;;;;;8.21;62.96;101002.50;10225628;28;20048;-62
2021/12/20 02:52:41;;;;;;;4.82;1.38;;;;;;;8.16;62.34;100993.97;10245138;28;20419;-63
2021/12/20 02:57:42;;;;;;;3.30;1.45;;;;;;;8.20;61.92;101003.47;10238088;28;20130;-64
2021/12/20 03:02:44;;;;;;;2.67;1.10;;;;;;;8.21;61.04;100994.53;10249417;28;20051;-63
2021/12/20 03:07:49;;;;;;;3.13;1.27;;;;;;;8.16;61.41;100986.00;10231986;28;20055;-63
2021/12/20 03:12:51;;;;;;;2.38;1.08;;;;;;;8.23;60.53;101004.13;10236730;28;20118;-62
2021/12/20 03:17:57;;;;;;;4.53;1.58;;;;;;;8.29;60.26;100992.31;10227703;28;20458;-63
2021/12/20 03:22:59;;;;;;;3.13;1.17;;;;;;;8.22;60.13;100991.78;10231194;28;20139;-63
2021/12/20 03:28:00;;;;;;;3.55;1.42;;;;;;;8.32;60.21;101002.72;10239820;28;20705;-62
2021/12/20 03:33:01;;;;;;;5.25;1.33;;;;;;;8.26;60.91;101001.28;10237452;28;20057;-62
2021/12/20 03:38:03;;;;;;;3.10;0.90;;;;;;;8.28;60.66;101012.66;10217782;28;20047;-66
2021/12/20 03:43:06;;;;;;;7.43;1.40;;;;;;;8.18;60.78;101013.28;10230219;28;20047;-63
2021/12/20 03:48:07;;;;;;;4.57;1.70;;;;;;;8.19;60.50;101017.66;10229421;28;20044;-62
2021/12/20 03:53:09;;;;;;;6.25;2.13;;;;;;;8.23;60.64;101017.38;10229104;28;20063;-63
2021/12/20 03:58:11;;;;;;;7.78;1.70;;;;;;;7.99;60.53;100995.81;10240422;28;20046;-62
2021/12/20 04:03:14;;;;;;;6.82;2.60;;;;;;;7.99;60.99;101010.84;10244387;28;20071;-63
2021/12/20 04:08:15;;;;;;;7.82;2.17;;;;;;;8.00;61.00;101023.16;10228738;28;20065;-62
2021/12/20 04:13:17;;;;;;;8.68;1.83;;;;;;;8.01;61.09;101023.06;10230691;28;20066;-62
2021/12/20 04:18:18;;;;;;;7.90;2.10;;;;;;;8.05;60.79;101026.41;10228106;28;20070;-62
2021/12/20 04:23:20;;;;;;;5.53;2.10;;;;;;;8.02;61.62;101027.44;10223094;28;20054;-64
2021/12/20 04:28:22;;;;;;;5.10;1.63;;;;;;;7.92;61.53;101023.59;10254772;28;20206;-63
2021/12/20 04:33:24;;;;;;;9.02;2.03;;;;;;;7.86;61.88;101016.00;10242301;28;20596;-63
2021/12/20 04:38:29;;;;;;;11.43;3.28;;;;;;;7.87;61.51;101033.63;10242725;28;20513;-62
2021/12/20 04:43:30;;;;;;;11.55;3.10;;;;;;;7.85;61.40;101036.38;10227357;28;20136;-62
2021/12/20 04:48:31;;;;;;;7.78;2.10;;;;;;;7.64;62.08;101035.78;10227273;28;20570;-63
2021/12/20 04:53:34;;;;;;;10.95;3.13;;;;;;;7.72;61.86;101041.50;10209981;28;20477;-64
2021/12/20 04:58:35;;;;;;;11.60;3.53;;;;;;;7.79;61.60;101042.88;10252503;28;20050;-62
2021/12/20 05:03:37;;;;;;;9.00;2.40;;;;;;;7.79;61.63;101042.88;10239351;28;20134;-62
2021/12/20 05:08:47;;;;;;;12.57;3.45;;;;;;;7.76;61.52;101043.03;10226290;28;20074;-62
2021/12/20 05:13:48;;;;;;;7.45;3.15;;;;;;;7.82;61.34;101051.56;10228575;28;20413;-64
2021/12/20 05:18:50;;;;;;;11.38;2.75;;;;;;;7.75;61.33;101054.56;10225800;28;20552;-63
2021/12/20 05:23:52;;;;;;;8.60;2.90;;;;;;;7.66;61.00;101051.59;10237428;28;20106;-63
2021/12/20 05:28:55;;;;;;;10.48;2.70;;;;;;;7.57;61.53;101052.94;10223676;28;20674;-63
2021/12/20 05:33:56;;;;;;;13.43;2.97;;;;;;;7.42;62.19;101050.19;10236448;28;20051;-63
2021/12/20 05:38:58;;;;;;;13.30;2.47;;;;;;;7.23;62.66;101049.47;10226010;28;20138;-62
2021/12/20 05:44:00;;;;;;;14.88;4.10;;;;;;;7.18;62.73;101062.13;10226206;28;20471;-62
2021/12/20 05:49:02;;;;;;;15.25;3.00;;;;;;;7.14;63.13;101074.66;10225259;28;20122;-61
2021/12/20 05:54:04;;;;;;;10.00;2.75;;;;;;;7.10;63.60;101075.78;10248686;28;20049;-62
2021/12/20 05:59:06;;;;;;;11.25;3.33;;;;;;;7.02;63.81;101088.53;10271028;28;20445;-63
2021/12/20 06:04:07;;;;;;;9.93;3.42;;;;;;;6.94;64.37;101083.66;10248867;28;20074;-63
2021/12/20 06:09:08;;;;;;;10.10;2.85;;;;;;;6.79;64.79;101077.38;10209703;28;20571;-63
2021/12/20 06:14:10;;;;;;;11.48;2.97;;;;;;;6.77;64.82;101095.13;10241475;28;20127;-62
2021/12/20 06:19:11;;;;;;;10.68;3.20;;;;;;;6.68;64.91;101096.44;10237833;28;20090;-62
2021/12/20 06:24:13;;;;;;;8.43;3.08;;;;;;;6.52;65.50;101092.84;10212280;28;20138;-61
2021/12/20 06:29:15;;;;;;;14.48;3.63;;;;;;;6.56;65.35;101107.66;10254461;28;20051;-64
2021/12/20 06:34:16;;;;;;;12.05;3.15;;;;;;;6.50;65.38;101102.63;10233569;28;20134;-63
2021/12/20 06:39:17;;;;;;;11.55;2.67;;;;;;;6.39;65.77;101099.69;10235476;28;20047;-62
2021/12/20 06:44:19;;;;;;;8.88;2.58;;;;;;;6.36;65.80;101106.84;10245541;28;20649;-62
2021/12/20 06:49:21;;;;;;;12.23;2.83;;;;;;;6.26;65.94;101129.38;10213363;28;20130;-63
2021/12/20 06:54:22;;;;;;;9.95;3.15;;;;;;;6.21;66.11;101128.72;10214934;28;20054;-62
2021/12/20 06:59:24;;;;;;;8.82;3.03;;;;;;;6.15;66.23;101140.44;10279262;23;20074;-60
2021/12/20 07:04:25;;;;;;;8.35;2.80;;;;;;;6.05;66.31;101133.03;10228105;28;20106;-59
2021/12/20 07:09:27;;;;;;;10.68;3.33;;;;;;;6.04;66.46;101142.75;10203746;28;20062;-59
2021/12/20 07:14:28;;;;;;;7.60;2.80;;;;;;;5.86;66.36;101141.81;10190715;28;20054;-59
2021/12/20 07:19:30;;;;;;;14.38;3.85;;;;;;;5.78;66.78;101144.81;10191725;28;20047;-59
2021/12/20 07:24:31;;;;;;;9.88;3.70;;;;;;;5.72;66.56;101160.06;10187223;28;20051;-59
2021/12/20 07:29:33;;;;;;;9.68;3.33;;;;;;;5.69;66.61;101168.13;10183141;28;20104;-59
2021/12/20 07:34:34;;;;;;;12.77;3.47;;;;;;;5.60;67.10;101172.03;10197850;28;20084;-59
2021/12/20 07:39:36;;;;;;;14.90;3.65;;;;;;;5.61;67.04;101182.53;10196453;28;20047;-59
2021/12/20 07:44:38;;;;;;;11.27;3.47;;;;;;;5.57;66.90;101183.63;10204883;28;20130;-59
2021/12/20 07:49:39;;;;;;;12.77;3.38;;;;;;;5.54;66.87;101185.53;10192965;28;20055;-59
2021/12/20 07:54:41;;;;;;;11.48;4.03;;;;;;;5.52;66.71;101193.53;10200979;28;20403;-60
2021/12/20 07:59:42;;;;;;;12.30;3.70;;;;;;;5.43;66.99;101199.22;10195615;28;20133;-58
2021/12/20 08:04:49;;;;;;;13.38;4.05;;;;;;;5.48;66.07;101186.69;10200443;28;20051;-58
2021/12/20 08:09:50;;;;;;;10.13;3.45;;;;;;;5.55;66.10;101190.75;10189107;28;20083;-58
2021/12/20 08:14:52;;;;;;;10.60;4.25;;;;;;;5.55;65.65;101196.03;10188218;28;20142;-60
2021/12/20 08:19:53;;;;;;;10.20;3.30;;;;;;;5.54;65.14;101189.03;10183203;28;20078;-58
2021/12/20 08:24:55;;;;;;;11.73;4.18;;;;;;;5.57;65.16;101198.59;10184549;28;20051;-59
2021/12/20 08:29:56;;;;;;;10.77;4.10;;;;;;;5.54;65.39;101198.72;10184813;28;20054;-59
2021/12/20 08:34:58;;;;;;;13.13;3.72;;;;;;;5.61;64.88;101208.97;10190973;28;20128;-58
2021/12/20 08:39:59;;;;;;;11.82;4.93;;;;;;;5.66;65.11;101212.25;10180380;28;20540;-59
2021/12/20 08:45:01;;;;;;;11.82;4.65;;;;;;;5.71;64.93;101219.13;10175427;28;20055;-59
2021/12/20 08:50:06;;;;;;;10.00;3.72;;;;;;;5.54;64.87;101215.47;10189266;28;20146;-59
2021/12/20 08:55:08;;;;;;;12.45;4.32;;;;;;;5.70;65.01;101228.81;10188004;28;20706;-60
2021/12/20 09:00:18;;;;;;;13.48;4.00;;;;;;;5.76;65.12;101227.69;10184355;28;20150;-60
2021/12/20 09:05:21;;;;;;;17.25;4.85;;;;;;;5.77;64.63;101227.63;10178084;28;20062;-61
2021/12/20 09:10:23;;;;;;;12.27;4.13;;;;;;;5.88;64.71;101224.50;10173271;28;20043;-61
2021/12/20 09:15:24;;;;;;;9.93;3.53;;;;;;;5.87;64.26;101232.50;10172206;28;20458;-60
2021/12/20 09:20:27;;;;;;;12.68;5.85;;;;;;;5.92;64.23;101238.44;10174178;28;20055;-62
2021/12/20 09:25:29;;;;;;;16.77;5.25;;;;;;;5.93;63.84;101241.03;10179129;28;20105;-60
2021/12/20 09:30:31;;;;;;;7.82;3.30;;;;;;;6.07;63.67;101258.06;10176168;28;20581;-59
2021/12/20 09:35:35;;;;;;;12.57;4.05;;;;;;;6.02;63.85;101250.34;10179143;28;20064;-61
2021/12/20 09:40:40;;;;;;;8.35;3.50;;;;;;;6.16;63.58;101257.66;10178711;28;20051;-60
2021/12/20 09:45:44;;;;;;;11.25;3.90;;;;;;;6.21;62.80;101258.28;10177591;28;20130;-59
2021/12/20 09:50:47;;;;;;;13.02;4.10;;;;;;;6.26;62.78;101264.22;10181843;28;20615;-60
2021/12/20 09:55:50;;;;;;;14.13;3.58;;;;;;;6.27;62.54;101271.22;10176973;28;20059;-60
2021/12/20 10:00:53;;;;;;;12.05;3.70;;;;;;;6.36;62.56;101270.81;10180847;28;20174;-60
2021/12/20 10:05:56;;;;;;;7.53;3.13;;;;;;;6.32;62.13;101263.94;10183901;28;20574;-61
2021/12/20 10:11:02;;;;;;;14.05;3.55;;;;;;;6.48;62.05;101265.84;10188178;28;20053;-59
2021/12/20 10:16:14;;;;;;;13.57;3.55;;;;;;;6.63;61.70;101266.91;10195325;28;20091;-61
2021/12/20 10:21:16;;;;;;;10.43;3.28;;;;;;;6.78;60.88;101260.03;10215344;28;20191;-64
2021/12/20 10:26:20;;;;;;;13.23;3.75;;;;;;;6.98;59.69;101259.94;10194614;28;20568;-61
2021/12/20 10:31:24;;;;;;;10.52;3.08;;;;;;;7.28;58.42;101251.38;10231079;28;20147;-60
2021/12/20 10:36:25;;;;;;;11.43;3.03;;;;;;;7.69;57.96;101244.88;10223252;28;20404;-60
2021/12/20 10:41:37;;;;;;;13.60;3.53;;;;;;;7.99;56.20;101241.50;10221871;28;20416;-60
2021/12/20 10:46:46;;;;;;;12.43;3.35;;;;;;;8.49;54.73;101238.75;10216010;28;20126;-59
2021/12/20 10:51:50;;;;;;;8.32;3.67;;;;;;;9.16;53.67;101232.34;10236276;28;20507;-60
2021/12/20 10:57:02;;;;;;;9.27;3.10;;;;;;;10.24;49.60;101237.25;10226633;28;20663;-59
2021/12/20 11:12:26;;;;;;;9.00;2.22;;;;;;;19.51;28.74;101214.44;10223461;28;20413;-63
2021/12/20 11:17:29;;;;;;;8.23;2.38;;;;;;;21.40;26.15;101206.03;10220884;28;20067;-62
2021/12/20 11:22:32;;;;;;;9.63;3.17;;;;;;;23.08;24.17;101206.59;10217642;28;20043;-62
2021/12/20 11:27:39;;;;;;;6.68;2.08;;;;;;;24.14;22.48;101206.56;10218388;28;20126;-63
2021/12/20 11:32:42;;;;;;;20.00;15.23;;;;;;;25.11;21.38;101203.59;10230225;28;20047;-64
2021/12/20 11:37:49;;;;;;;6.30;3.33;;;;;;;25.01;20.30;101201.19;10217206;28;20416;-63
2021/12/20 11:42:51;;;;;;;7.85;2.70;;;;;;;25.25;19.63;101191.75;10233686;28;20062;-61
2021/12/20 11:48:01;;;;;;;5.37;2.10;;;;;;;26.18;19.01;101190.66;10218469;28;20636;-64
2021/12/20 11:53:08;;;;;;;5.60;1.73;;;;;;;26.74;17.72;101184.97;10228939;28;20090;-62
2021/12/20 11:58:18;;;;;;;5.13;1.70;;;;;;;27.28;17.21;101185.00;10219129;28;20292;-63
2021/12/20 12:03:31;;;;;;;6.43;1.80;;;;;;;27.56;17.09;101182.00;10219064;28;20039;-63
2021/12/20 12:08:37;;;;;;;8.30;2.25;;;;;;;27.73;17.42;101190.59;10203737;28;20130;-57
2021/12/20 12:13:58;;;;;;;5.68;2.30;;;;;;;28.19;16.77;101178.69;10215425;28;20133;-58
2021/12/20 12:19:01;;;;;;;;;;;;;;;28.89;17.31;101174.25;10227102;28;20133;-57
2021/12/20 12:24:06;;;;;;;4.05;1.27;;;;;;;29.52;15.99;101170.50;10208226;28;20066;-56
2021/12/20 12:29:17;;;;;;;4.57;1.60;;;;;;;29.19;14.33;101166.16;10182301;28;20856;-64
2021/12/20 12:34:20;;;;;;;4.25;1.90;;;;;;;28.38;15.04;101162.34;10186869;28;21082;-62
2021/12/20 12:39:28;;;;;;;6.78;1.75;;;;;;;28.39;15.41;101155.81;10180015;28;20055;-62
2021/12/20 12:44:32;;;;;;;6.03;2.25;;;;;;;28.18;15.22;101162.47;10184526;28;20247;-62
2021/12/20 12:49:42;;;;;;;4.40;2.42;;;;;;;27.55;15.08;101158.47;10180214;28;20083;-63
2021/12/20 12:54:45;;;;;;;3.93;2.07;;;;;;;27.50;15.60;101159.13;10177484;28;20069;-62
2021/12/20 12:59:50;;;;;;;5.30;1.80;;;;;;;27.73;15.63;101149.56;10182948;28;20052;-62
2021/12/20 13:05:07;;;;;;;6.32;1.50;;;;;;;27.36;15.82;101159.34;10180948;28;20082;-64
2021/12/20 13:10:37;;;;;;;7.53;2.15;;;;;;;26.89;16.15;101164.78;10179619;28;20244;-65
2021/12/20 13:20:57;;;;;;;6.20;2.13;;;;;;;26.28;17.55;101153.75;10180295;28;20186;-61
2021/12/20 13:26:21;;;;;;;5.85;2.15;;;;;;;25.66;17.95;101149.31;10177700;28;20057;-62
2021/12/20 13:31:26;;;;;;;5.15;1.70;;;;;;;24.77;18.36;101145.28;10193016;28;20429;-63
2021/12/20 13:36:34;;;;;;;6.15;1.95;;;;;;;23.89;19.51;101154.34;10179069;28;20043;-63
2021/12/20 13:41:40;;;;;;;5.47;1.85;;;;;;;21.15;22.30;101158.19;10182496;28;20126;-61
2021/12/20 13:46:48;;;;;;;4.88;1.98;;;;;;;18.47;25.51;101165.50;10180978;28;20572;-61
2021/12/20 13:52:05;;;;;;;5.00;1.77;;;;;;;15.28;30.64;101162.63;10176502;28;20051;-62
2021/12/20 13:57:23;;;;;;;7.72;1.80;;;;;;;13.48;33.45;101170.13;10182446;28;20242;-60
2021/12/20 14:02:27;;;;;;;8.57;2.60;;;;;;;12.54;36.18;101168.25;10180529;28;20122;-61
2021/12/20 14:07:32;;;;;;;6.05;2.13;;;;;;;11.77;37.37;101156.94;10189168;28;20403;-62
2021/12/20 14:12:47;;;;;;;6.95;3.53;;;;;;;11.28;38.08;101158.56;10181136;28;20067;-62
2021/12/20 14:17:51;;;;;;;;;;;;;;;10.82;39.51;101167.88;10177030;28;20158;-62
2021/12/20 14:22:59;;;;;;;9.43;2.20;;;;;;;10.51;40.71;101172.59;10185262;28;20003;-60
2021/12/20 14:28:04;;;;;;;6.55;2.03;;;;;;;10.21;41.20;101168.25;10180888;28;20044;-60
2021/12/20 14:33:28;;;;;;;6.45;1.80;;;;;;;9.87;42.20;101154.44;10174900;28;20392;-62
2021/12/20 14:38:43;;;;;;;5.23;2.10;;;;;;;9.69;42.59;101155.59;10156197;28;20051;-61
2021/12/20 14:43:46;;;;;;;7.43;2.03;;;;;;;9.41;43.13;101156.47;10180076;28;20051;-61
2021/12/20 14:48:56;;;;;;;5.57;2.13;;;;;;;9.21;43.75;101158.53;10182238;28;20233;-62
2021/12/20 14:54:14;;;;;;;10.50;2.72;;;;;;;9.01;44.39;101154.41;10187242;28;20282;-62
2021/12/20 14:59:16;;;;;;;9.32;2.80;;;;;;;8.81;44.59;101159.09;10186698;28;20065;-61
2021/12/20 15:04:18;;;;;;;7.93;2.72;;;;;;;8.65;45.33;101150.31;10183435;28;20057;-60
2021/12/20 15:09:21;;;;;;;7.47;2.25;;;;;;;8.42;45.74;101147.19;10186676;28;20059;-61
2021/12/20 15:14:23;;;;;;;6.78;2.10;;;;;;;8.22;46.44;101160.69;10188878;28;20055;-62
2021/12/20 15:19:25;;;;;;;7.30;2.33;;;;;;;8.05;46.24;101154.53;10196228;28;20187;-61
2021/12/20 15:24:27;;;;;;;5.07;1.90;;;;;;;7.91;46.89;101154.44;10186951;28;20497;-60
2021/12/20 15:29:30;;;;;;;7.07;2.20;;;;;;;7.80;46.82;101160.34;10189029;28;20075;-62
2021/12/20 15:34:31;;;;;;;7.32;2.50;;;;;;;7.66;47.53;101161.09;10191671;28;20198;-61
2021/12/20 15:39:33;;;;;;;7.13;1.90;;;;;;;7.50;47.71;101147.78;10207058;28;20194;-61
2021/12/20 15:44:34;;;;;;;5.45;2.50;;;;;;;7.40;48.23;101160.69;10207203;28;20577;-60
2021/12/20 15:49:36;;;;;;;6.00;2.35;;;;;;;7.29;48.47;101170.97;10184060;28;20142;-61
2021/12/20 15:54:37;;;;;;;6.22;2.88;;;;;;;7.20;48.38;101171.47;10187067;28;20047;-61
2021/12/20 15:59:39;;;;;;;9.48;2.35;;;;;;;7.14;48.95;101167.31;10178337;28;20126;-61
2021/12/20 16:04:43;;;;;;;5.72;2.15;;;;;;;6.99;48.84;101168.97;10175686;28;20047;-61
2021/12/20 16:09:44;;;;;;;4.47;1.87;;;;;;;6.88;49.22;101172.16;10177488;28;20137;-61
2021/12/20 16:14:46;;;;;;;4.72;2.10;;;;;;;6.80;49.88;101173.47;10176400;28;20067;-61
2021/12/20 16:19:47;;;;;;;7.32;2.53;;;;;;;6.70;49.76;101168.66;10175667;28;20057;-60
2021/12/20 16:24:49;;;;;;;5.22;2.20;;;;;;;6.62;49.83;101164.66;10174913;28;20412;-61
2021/12/20 16:30:04;;;;;;;9.25;2.72;;;;;;;6.65;50.43;101177.72;10176132;28;20103;-60
2021/12/20 16:35:08;;;;;;;7.80;2.93;;;;;;;6.54;50.31;101176.50;10174799;28;20066;-59
2021/12/20 16:40:12;;;;;;;6.63;2.72;;;;;;;6.48;50.27;101179.41;10203827;28;20063;-58
2021/12/20 16:45:18;;;;;;;5.75;2.50;;;;;;;6.44;50.71;101192.88;10174825;28;20059;-60
2021/12/20 16:50:22;;;;;;;5.07;2.40;;;;;;;6.29;50.59;101174.19;10173878;28;20091;-60
2021/12/20 16:55:23;;;;;;;7.97;3.00;;;;;;;6.35;50.99;101178.28;10168502;28;20398;-60
2021/12/20 17:00:26;;;;;;;8.00;3.10;;;;;;;6.17;51.05;101172.09;10173804;28;20056;-59
2021/12/20 17:10:53;;;;;;;6.72;3.00;;;;;;;6.10;51.53;101178.63;10175410;28;20043;-60
2021/12/20 17:15:55;;;;;;;7.13;3.33;;;;;;;6.04;51.67;101177.13;10174193;28;20462;-60
2021/12/20 17:20:57;;;;;;;8.35;3.28;;;;;;;5.96;52.14;101176.56;10169613;28;20051;-62
2021/12/20 17:25:59;;;;;;;11.25;3.60;;;;;;;5.90;52.07;101179.50;10173247;28;20411;-59
2021/12/20 17:31:00;;;;;;;8.80;2.97;;;;;;;5.88;52.09;101184.00;10169681;28;20055;-60
2021/12/20 17:36:02;;;;;;;9.50;4.20;;;;;;;5.82;52.18;101179.84;10172937;28;20062;-60
2021/12/20 17:41:05;;;;;;;6.97;4.22;;;;;;;5.71;52.27;101180.34;10173893;28;20141;-59
2021/12/20 17:46:09;;;;;;;6.70;4.30;;;;;;;5.69;52.24;101176.06;10174454;28;20759;-58
2021/12/20 17:51:11;;;;;;;5.37;3.90;;;;;;;5.58;52.02;101181.84;10166695;28;20174;-57
2021/12/20 17:56:12;;;;;;;6.13;3.25;;;;;;;5.56;52.15;101191.63;10167137;28;20497;-58
2021/12/20 18:01:16;;;;;;;5.18;3.10;;;;;;;5.49;51.86;101191.03;10169826;28;20058;-60
2021/12/20 18:06:17;;;;;;;7.03;3.00;;;;;;;5.49;52.15;101204.22;10176856;28;20058;-58
2021/12/20 18:11:26;;;;;;;5.40;2.55;;;;;;;5.44;52.37;101203.59;10169626;28;20126;-58
2021/12/20 18:16:28;;;;;;;5.45;3.00;;;;;;;5.40;52.24;101204.63;10173319;28;20186;-58
2021/12/20 18:21:30;;;;;;;7.18;3.65;;;;;;;5.20;52.90;101174.69;10176876;28;20114;-59
2021/12/20 18:26:32;;;;;;;10.70;4.57;;;;;;;5.33;52.94;101204.06;10179844;28;20051;-60
2021/12/20 18:31:34;;;;;;;8.15;5.85;;;;;;;5.20;53.82;101190.50;10178827;28;20055;-61
2021/12/20 18:36:36;;;;;;;7.20;3.60;;;;;;;5.30;53.17;101209.47;10180586;28;20306;-59
2021/12/20 18:41:40;;;;;;;8.23;3.63;;;;;;;5.22;53.30;101212.41;10186393;28;21390;-59
2021/12/20 18:46:42;;;;;;;6.30;3.03;;;;;;;5.15;53.55;101200.44;10183758;28;20039;-57
2021/12/20 18:51:44;;;;;;;7.47;3.53;;;;;;;5.17;53.96;101203.00;10180036;28;20496;-60
2021/12/20 18:56:46;;;;;;;8.23;3.85;;;;;;;5.12;54.26;101208.47;10214803;28;20146;-58
2021/12/20 19:01:50;;;;;;;7.07;4.03;;;;;;;5.06;54.29;101211.34;10188164;28;25269;-58
2021/12/20 19:06:54;;;;;;;7.65;4.32;;;;;;;5.05;54.69;101218.41;10185097;28;20046;-57
2021/12/20 19:11:57;;;;;;;8.68;5.15;;;;;;;4.94;54.56;101218.88;10187281;28;20520;-58
2021/12/20 19:17:00;;;;;;;7.13;4.80;;;;;;;4.76;55.18;101225.75;10188481;28;20510;-57
2021/12/20 19:22:03;;;;;;;8.25;5.20;;;;;;;4.70;55.45;101225.13;10181034;28;20139;-58
2021/12/20 19:27:04;;;;;;;10.30;5.93;;;;;;;4.51;55.69;101220.59;10182558;28;20115;-57
2021/12/20 19:32:08;;;;;;;8.45;5.53;;;;;;;4.53;55.91;101226.66;10178561;28;20196;-57
2021/12/20 19:37:10;;;;;;;10.07;5.75;;;;;;;4.45;55.79;101231.41;10179510;28;20211;-58
2021/12/20 19:42:14;;;;;;;7.97;5.22;;;;;;;4.37;56.34;101222.94;10174816;28;20138;-58
2021/12/20 19:47:16;;;;;;;7.88;5.65;;;;;;;4.36;56.73;101216.78;10179085;28;20521;-57
2021/12/20 19:52:17;;;;;;;10.48;5.15;;;;;;;4.25;55.80;101226.91;10177083;28;20288;-56
2021/12/20 19:57:18;;;;;;;7.72;5.20;;;;;;;4.25;56.04;101224.28;10179926;28;20736;-57
2021/12/20 20:02:20;;;;;;;7.28;5.20;;;;;;;4.14;55.73;101224.66;10175837;28;20062;-57
2021/12/20 20:07:22;;;;;;;6.97;5.00;;;;;;;4.22;55.34;101224.41;10177636;28;20531;-57
2021/12/20 20:12:24;;;;;;;7.30;4.10;;;;;;;4.27;54.90;101218.94;10184180;28;20625;-57
2021/12/20 20:17:25;;;;;;;5.47;3.92;;;;;;;4.17;54.22;101227.19;10178683;28;20133;-57
2021/12/20 20:22:27;;;;;;;7.72;4.82;;;;;;;4.10;53.97;101209.91;10184231;28;20043;-58
2021/12/20 20:27:29;;;;;;;7.25;4.60;;;;;;;3.98;53.47;101215.63;10188607;28;20058;-58
2021/12/20 20:32:30;;;;;;;8.75;4.50;;;;;;;4.00;53.83;101224.34;10179013;28;20054;-57
2021/12/20 20:37:32;;;;;;;5.75;3.92;;;;;;;4.07;53.58;101224.06;10183786;28;20047;-57
2021/12/20 20:42:33;;;;;;;9.75;4.97;;;;;;;3.99;53.49;101217.34;10187689;28;20054;-58
2021/12/20 20:47:35;;;;;;;8.52;4.10;;;;;;;4.00;53.46;101219.06;10183839;28;20067;-58
2021/12/20 20:52:44;;;;;;;6.90;4.78;;;;;;;4.05;56.05;101222.38;10185552;28;20055;-58
2021/12/20 20:57:45;;;;;;;6.90;4.30;;;;;;;3.98;53.83;101210.34;10188086;28;20920;-58
2021/12/20 21:02:47;;;;;;;6.75;3.83;;;;;;;3.97;54.11;101213.94;10185532;28;20131;-57
2021/12/20 21:07:48;;;;;;;5.78;4.40;;;;;;;3.91;54.06;101211.53;10185276;28;20476;-59
2021/12/20 21:12:50;;;;;;;6.78;4.53;;;;;;;3.91;54.17;101208.88;10186761;28;20117;-58
2021/12/20 21:17:55;;;;;;;5.22;3.45;;;;;;;3.86;54.42;101202.00;10187149;28;20110;-57
2021/12/20 21:22:56;;;;;;;8.32;4.68;;;;;;;3.80;54.26;101207.50;10183483;28;20048;-58
2021/12/20 21:27:58;;;;;;;8.07;4.72;;;;;;;3.75;54.23;101206.81;10182157;28;20497;-57
2021/12/20 21:33:01;;;;;;;7.55;4.32;;;;;;;3.74;54.68;101198.97;10186220;28;20202;-58
2021/12/20 21:38:03;;;;;;;6.97;3.90;;;;;;;3.66;54.89;101193.97;10176620;28;20312;-58
2021/12/20 21:43:04;;;;;;;7.88;4.45;;;;;;;3.58;54.54;101190.78;10183778;28;20051;-58
2021/12/20 21:48:07;;;;;;;7.88;4.63;;;;;;;3.54;54.67;101201.44;10180351;28;20133;-58
2021/12/20 21:53:08;;;;;;;7.03;4.30;;;;;;;3.52;55.06;101203.22;10180915;28;20060;-58
2021/12/20 21:58:10;;;;;;;6.85;3.90;;;;;;;3.45;54.92;101212.28;10187648;28;20064;-58
2021/12/20 22:03:11;;;;;;;6.50;3.80;;;;;;;3.51;54.77;101206.81;10189300;28;20190;-57
2021/12/20 22:08:13;;;;;;;6.95;3.95;;;;;;;3.46;55.58;101199.97;10192583;28;20058;-57
2021/12/20 22:13:14;;;;;;;7.45;3.85;;;;;;;3.45;55.04;101206.16;10193823;28;20069;-59
2021/12/20 22:18:17;;;;;;;8.57;4.55;;;;;;;3.40;55.08;101206.31;10192971;28;20666;-57
2021/12/20 22:23:18;;;;;;;8.15;3.85;;;;;;;3.27;55.24;101183.97;10193036;28;20210;-57
2021/12/20 22:28:20;;;;;;;5.32;3.47;;;;;;;3.31;55.31;101204.00;10202622;28;20126;-57
2021/12/20 22:33:21;;;;;;;5.47;3.55;;;;;;;3.33;55.40;101199.53;10200598;28;20065;-59
2021/12/20 22:38:23;;;;;;;5.32;3.67;;;;;;;3.39;55.37;101199.31;10204282;28;20059;-58
2021/12/20 22:43:25;;;;;;;9.13;4.03;;;;;;;3.36;55.33;101194.16;10209457;28;20038;-58
2021/12/20 22:48:26;;;;;;;6.70;3.03;;;;;;;3.34;55.53;101196.00;10213685;28;20066;-58
2021/12/20 22:53:27;;;;;;;6.13;2.95;;;;;;;3.31;55.31;101189.06;10220841;28;20043;-58
2021/12/20 22:58:29;;;;;;;6.20;3.85;;;;;;;3.32;55.40;101197.84;10223230;28;20145;-58
2021/12/20 23:03:30;;;;;;;6.00;3.55;;;;;;;3.27;55.27;101192.75;10224424;28;20127;-58
2021/12/20 23:08:32;;;;;;;5.75;3.60;;;;;;;3.28;55.79;101201.47;10215381;28;20071;-56
2021/12/20 23:13:37;;;;;;;4.47;3.08;;;;;;;3.14;55.82;101197.56;10217812;28;20130;-57
2021/12/20 23:18:39;;;;;;;8.45;3.35;;;;;;;3.17;56.09;101197.44;10207199;28;20150;-58
2021/12/20 23:23:43;;;;;;;6.85;3.17;;;;;;;3.14;56.14;101189.66;10216762;28;20043;-58
2021/12/20 23:28:45;;;;;;;7.05;3.60;;;;;;;3.12;56.47;101188.00;10206492;28;20083;-58
2021/12/20 23:33:46;;;;;;;8.07;4.38;;;;;;;3.02;56.62;101192.72;10214691;28;20154;-58
2021/12/20 23:38:53;;;;;;;6.78;4.25;;;;;;;3.01;56.82;101194.47;10212974;28;20082;-58
2021/12/20 23:43:58;;;;;;;6.10;3.88;;;;;;;2.96;57.13;101198.19;10205209;28;20599;-57
2021/12/20 23:49:00;;;;;;;5.93;4.13;;;;;;;2.96;57.21;101203.47;10213801;28;20102;-57
2021/12/20 23:54:03;;;;;;;9.20;4.45;;;;;;;2.89;57.50;101186.16;10214125;28;20143;-57